createdAt,value
2018-07-11T00:00:14.266Z,99255.11
2018-07-11T00:00:45.461Z,99254.84
2018-07-11T00:01:16.689Z,99254.31
2018-07-11T00:01:47.864Z,99258.09
2018-07-11T00:02:19.102Z,99260.31
2018-07-11T00:02:50.335Z,99257.70
2018-07-11T00:03:21.564Z,99256.48
2018-07-11T00:03:52.800Z,99257.02
2018-07-11T00:04:23.980Z,99254.11
2018-07-11T00:04:55.208Z,99254.70
2018-07-11T00:05:26.415Z,99256.32
2018-07-11T00:05:57.589Z,99256.43
2018-07-11T00:06:28.812Z,99249.82
2018-07-11T00:06:59.985Z,99256.51
2018-07-11T00:07:31.160Z,99250.50
2018-07-11T00:08:02.385Z,99246.16
2018-07-11T00:08:33.616Z,99252.20
2018-07-11T00:09:04.795Z,99252.38
2018-07-11T00:09:35.972Z,99249.28
2018-07-11T00:10:07.217Z,99248.80
2018-07-11T00:10:38.408Z,99250.61
2018-07-11T00:11:09.637Z,99251.44
2018-07-11T00:11:41.005Z,99250.39
2018-07-11T00:12:12.197Z,99246.69
2018-07-11T00:12:43.434Z,99255.76
2018-07-11T00:13:14.624Z,99254.33
2018-07-11T00:13:45.804Z,99249.42
2018-07-11T00:14:16.984Z,99252.41
2018-07-11T00:14:48.210Z,99252.70
2018-07-11T00:15:19.443Z,99255.16
2018-07-11T00:15:50.625Z,99250.98
2018-07-11T00:16:21.798Z,99256.91
2018-07-11T00:16:53.097Z,99253.81
2018-07-11T00:17:24.350Z,99248.41
2018-07-11T00:17:55.576Z,99252.88
2018-07-11T00:18:26.828Z,99253.70
2018-07-11T00:18:58.090Z,99249.17
2018-07-11T00:19:29.357Z,99255.86
2018-07-11T00:20:00.552Z,99255.97
2018-07-11T00:20:31.785Z,99256.84
2018-07-11T00:21:03.007Z,99255.30
2018-07-11T00:21:34.186Z,99254.34
2018-07-11T00:22:05.415Z,99248.84
2018-07-11T00:22:36.647Z,99248.38
2018-07-11T00:23:07.832Z,99248.84
2018-07-11T00:23:39.060Z,99253.78
2018-07-11T00:24:10.245Z,99252.53
2018-07-11T00:24:41.427Z,99249.52
2018-07-11T00:25:12.663Z,99250.00
2018-07-11T00:25:43.850Z,99253.59
2018-07-11T00:26:15.032Z,99254.53
2018-07-11T00:26:46.229Z,99260.80
2018-07-11T00:27:17.461Z,99255.14
2018-07-11T00:27:48.681Z,99252.88
2018-07-11T00:28:19.868Z,99254.80
2018-07-11T00:28:51.048Z,99249.89
2018-07-11T00:29:22.221Z,99253.86
2018-07-11T00:29:53.413Z,99253.67
2018-07-11T00:30:24.584Z,99252.23
2018-07-11T00:30:55.765Z,99250.91
2018-07-11T00:31:26.955Z,99248.65
2018-07-11T00:31:58.128Z,99250.34
2018-07-11T00:32:29.362Z,99248.65
2018-07-11T00:33:00.594Z,99255.45
2018-07-11T00:33:31.801Z,99254.88
2018-07-11T00:34:02.990Z,99249.02
2018-07-11T00:34:34.175Z,99249.02
2018-07-11T00:35:05.376Z,99246.38
2018-07-11T00:35:36.563Z,99245.22
2018-07-11T00:36:07.755Z,99252.58
2018-07-11T00:36:38.968Z,99244.98
2018-07-11T00:37:10.204Z,99245.97
2018-07-11T00:37:41.441Z,99248.23
2018-07-11T00:38:12.625Z,99242.30
2018-07-11T00:38:43.803Z,99245.52
2018-07-11T00:39:14.989Z,99248.65
2018-07-11T00:39:46.168Z,99253.07
2018-07-11T00:40:17.400Z,99243.09
2018-07-11T00:40:48.592Z,99251.14
2018-07-11T00:41:19.828Z,99254.23
2018-07-11T00:41:51.064Z,99248.95
2018-07-11T00:42:22.244Z,99245.25
2018-07-11T00:42:53.456Z,99242.61
2018-07-11T00:43:24.916Z,99239.70
2018-07-11T00:43:56.089Z,99251.14
2018-07-11T00:44:27.268Z,99247.25
2018-07-11T00:44:58.447Z,99250.38
2018-07-11T00:45:29.661Z,99249.06
2018-07-11T00:46:00.889Z,99246.15
2018-07-11T00:46:32.166Z,99251.17
2018-07-11T00:47:03.360Z,99246.83
2018-07-11T00:47:34.537Z,99245.23
2018-07-11T00:48:05.715Z,99250.14
2018-07-11T00:48:36.940Z,99246.07
2018-07-11T00:49:08.178Z,99245.87
2018-07-11T00:49:39.372Z,99251.89
2018-07-11T00:50:10.548Z,99248.68
2018-07-11T00:50:41.729Z,99250.38
2018-07-11T00:51:12.900Z,99246.30
2018-07-11T00:51:44.125Z,99248.76
2018-07-11T00:52:15.309Z,99246.38
2018-07-11T00:52:46.480Z,99249.86
2018-07-11T00:53:17.716Z,99255.64
2018-07-11T00:53:48.987Z,99245.14
2018-07-11T00:54:20.222Z,99250.91
2018-07-11T00:54:51.409Z,99252.73
2018-07-11T00:55:22.592Z,99248.84
2018-07-11T00:55:53.826Z,99254.13
2018-07-11T00:56:25.007Z,99249.81
2018-07-11T00:56:56.220Z,99247.73
2018-07-11T00:57:27.396Z,99242.19
2018-07-11T00:57:58.574Z,99249.25
2018-07-11T00:58:29.748Z,99246.83
2018-07-11T00:59:01.073Z,99252.30
2018-07-11T00:59:32.267Z,99246.75
2018-07-11T01:00:03.448Z,99247.23
2018-07-11T01:00:34.685Z,99033.55
2018-07-11T01:01:06.667Z,99249.58
2018-07-11T01:01:37.942Z,99246.77
2018-07-11T01:02:09.181Z,99244.80
2018-07-11T01:02:40.376Z,99240.08
2018-07-11T01:03:11.600Z,99236.61
2018-07-11T01:03:42.884Z,99233.20
2018-07-11T01:04:14.069Z,99239.33
2018-07-11T01:04:45.245Z,99237.82
2018-07-11T01:05:16.473Z,99240.84
2018-07-11T01:05:47.669Z,99234.50
2018-07-11T01:06:18.848Z,99236.28
2018-07-11T01:06:50.088Z,99231.97
2018-07-11T01:07:21.327Z,99234.69
2018-07-11T01:07:52.513Z,99234.61
2018-07-11T01:08:23.737Z,99230.27
2018-07-11T01:08:55.025Z,99233.85
2018-07-11T01:09:26.222Z,99234.69
2018-07-11T01:09:57.442Z,99235.63
2018-07-11T01:10:28.633Z,99234.31
2018-07-11T01:10:59.810Z,99235.55
2018-07-11T01:11:31.023Z,99234.95
2018-07-11T01:12:02.198Z,99230.23
2018-07-11T01:12:33.369Z,99237.68
2018-07-11T01:13:04.611Z,99235.87
2018-07-11T01:13:35.788Z,99234.47
2018-07-11T01:14:07.017Z,99234.92
2018-07-11T01:14:38.247Z,99239.30
2018-07-11T01:15:09.431Z,99247.69
2018-07-11T01:15:40.671Z,99244.66
2018-07-11T01:16:11.858Z,99240.21
2018-07-11T01:16:43.078Z,99242.13
2018-07-11T01:17:14.270Z,99240.17
2018-07-11T01:17:45.445Z,99238.92
2018-07-11T01:18:16.625Z,99241.67
2018-07-11T01:18:47.794Z,99243.48
2018-07-11T01:19:19.029Z,99242.62
2018-07-11T01:19:50.258Z,99243.67
2018-07-11T01:20:21.508Z,99238.38
2018-07-11T01:20:52.694Z,99241.97
2018-07-11T01:21:23.866Z,99240.19
2018-07-11T01:21:55.042Z,99243.67
2018-07-11T01:22:26.257Z,99246.53
2018-07-11T01:22:57.434Z,99237.84
2018-07-11T01:23:28.680Z,99242.67
2018-07-11T01:23:59.876Z,99240.11
2018-07-11T01:24:31.096Z,99242.38
2018-07-11T01:25:02.284Z,99236.74
2018-07-11T01:25:33.472Z,99239.38
2018-07-11T01:26:04.703Z,99236.25
2018-07-11T01:26:35.941Z,99241.27
2018-07-11T01:27:07.165Z,99238.06
2018-07-11T01:27:38.344Z,99243.70
2018-07-11T01:28:09.577Z,99246.45
2018-07-11T01:28:40.770Z,99239.38
2018-07-11T01:29:12.009Z,99242.86
2018-07-11T01:29:43.241Z,99238.52
2018-07-11T01:30:14.467Z,99242.03
2018-07-11T01:30:45.713Z,99237.95
2018-07-11T01:31:16.922Z,99238.79
2018-07-11T01:31:48.104Z,99236.91
2018-07-11T01:32:19.339Z,99242.56
2018-07-11T01:32:50.532Z,99238.38
2018-07-11T01:33:21.752Z,99246.58
2018-07-11T01:33:52.993Z,99242.70
2018-07-11T01:34:24.204Z,99243.80
2018-07-11T01:34:55.432Z,99246.45
2018-07-11T01:35:26.672Z,99249.09
2018-07-11T01:35:57.884Z,99242.32
2018-07-11T01:36:29.121Z,99246.85
2018-07-11T01:37:00.308Z,99243.86
2018-07-11T01:37:31.496Z,99243.94
2018-07-11T01:38:02.717Z,99242.73
2018-07-11T01:38:33.904Z,99238.98
2018-07-11T01:39:05.084Z,99244.94
2018-07-11T01:39:36.308Z,99246.17
2018-07-11T01:40:07.481Z,99247.34
2018-07-11T01:40:38.701Z,99239.52
2018-07-11T01:41:09.952Z,99243.10
2018-07-11T01:41:41.153Z,99246.20
2018-07-11T01:42:12.437Z,99237.92
2018-07-11T01:42:43.638Z,99241.51
2018-07-11T01:43:14.819Z,99241.13
2018-07-11T01:43:45.997Z,99239.05
2018-07-11T01:44:17.224Z,99241.31
2018-07-11T01:44:48.457Z,99237.56
2018-07-11T01:45:19.656Z,99238.13
2018-07-11T01:45:50.894Z,99241.44
2018-07-11T01:46:22.137Z,99242.31
2018-07-11T01:46:53.316Z,99244.08
2018-07-11T01:47:24.549Z,99239.84
2018-07-11T01:47:55.773Z,99241.66
2018-07-11T01:48:27.010Z,99238.63
2018-07-11T01:48:58.189Z,99246.11
2018-07-11T01:49:29.421Z,99239.39
2018-07-11T01:50:00.653Z,99235.89
2018-07-11T01:50:31.828Z,99240.23
2018-07-11T01:51:03.012Z,99239.84
2018-07-11T01:51:34.195Z,99237.59
2018-07-11T01:52:05.400Z,99238.53
2018-07-11T01:52:36.649Z,99242.87
2018-07-11T01:53:07.820Z,99239.50
2018-07-11T01:53:39.004Z,99234.94
2018-07-11T01:54:10.237Z,99239.39
2018-07-11T01:54:41.425Z,99241.26
2018-07-11T01:55:12.596Z,99236.81
2018-07-11T01:55:43.814Z,99243.61
2018-07-11T01:56:15.039Z,99236.90
2018-07-11T01:56:46.220Z,99240.86
2018-07-11T01:57:17.406Z,99235.58
2018-07-11T01:57:48.583Z,99233.39
2018-07-11T01:58:19.808Z,99237.73
2018-07-11T01:58:51.058Z,99240.97
2018-07-11T01:59:22.246Z,99239.72
2018-07-11T01:59:53.521Z,99240.70
2018-07-11T02:00:24.766Z,99237.75
2018-07-11T02:00:56.002Z,99239.07
2018-07-11T02:01:27.192Z,99237.75
2018-07-11T02:01:58.410Z,99237.30
2018-07-11T02:02:29.642Z,99235.86
2018-07-11T02:03:00.917Z,99235.86
2018-07-11T02:03:32.099Z,99236.73
2018-07-11T02:04:03.303Z,99243.69
2018-07-11T02:04:34.472Z,99238.33
2018-07-11T02:05:05.655Z,99239.27
2018-07-11T02:05:36.896Z,99238.67
2018-07-11T02:06:08.085Z,99244.94
2018-07-11T02:06:39.321Z,99245.77
2018-07-11T02:07:10.562Z,99243.95
2018-07-11T02:07:41.805Z,99248.78
2018-07-11T02:08:13.036Z,99244.72
2018-07-11T02:08:44.212Z,99241.51
2018-07-11T02:09:15.430Z,99241.30
2018-07-11T02:09:46.653Z,99245.23
2018-07-11T02:10:17.834Z,99246.72
2018-07-11T02:10:49.052Z,99243.89
2018-07-11T02:11:20.293Z,99245.94
2018-07-11T02:11:51.481Z,99246.20
2018-07-11T02:12:22.661Z,99248.39
2018-07-11T02:12:53.836Z,99246.58
2018-07-11T02:13:25.012Z,99244.61
2018-07-11T02:13:56.242Z,99246.53
2018-07-11T02:14:27.520Z,99246.16
2018-07-11T02:14:58.753Z,99247.09
2018-07-11T02:15:29.944Z,99243.34
2018-07-11T02:16:01.126Z,99247.05
2018-07-11T02:16:32.446Z,99249.03
2018-07-11T02:17:03.642Z,99254.32
2018-07-11T02:17:34.869Z,99249.03
2018-07-11T02:18:06.105Z,99251.86
2018-07-11T02:18:37.324Z,99252.91
2018-07-11T02:19:08.504Z,99257.36
2018-07-11T02:19:39.736Z,99252.16
2018-07-11T02:20:10.914Z,99253.58
2018-07-11T02:20:42.141Z,99251.16
2018-07-11T02:21:13.384Z,99256.17
2018-07-11T02:21:44.576Z,99252.66
2018-07-11T02:22:15.813Z,99253.98
2018-07-11T02:22:47.002Z,99256.73
2018-07-11T02:23:18.177Z,99254.92
2018-07-11T02:23:49.452Z,99260.20
2018-07-11T02:24:20.657Z,99261.25
2018-07-11T02:24:51.825Z,99252.88
2018-07-11T02:25:23.000Z,99258.98
2018-07-11T02:25:54.179Z,99253.25
2018-07-11T02:26:25.413Z,99255.68
2018-07-11T02:26:56.614Z,99259.08
2018-07-11T02:27:27.845Z,99258.48
2018-07-11T02:27:59.095Z,99264.05
2018-07-11T02:28:30.280Z,99263.59
2018-07-11T02:29:01.496Z,99257.36
2018-07-11T02:29:32.665Z,99255.66
2018-07-11T02:30:03.835Z,99260.95
2018-07-11T02:30:35.110Z,99257.92
2018-07-11T02:31:06.304Z,99259.63
2018-07-11T02:31:37.536Z,99253.67
2018-07-11T02:32:08.717Z,99259.41
2018-07-11T02:32:39.900Z,99261.05
2018-07-11T02:33:11.113Z,99253.96
2018-07-11T02:33:42.290Z,99254.91
2018-07-11T02:34:13.510Z,99263.77
2018-07-11T02:34:44.715Z,99251.16
2018-07-11T02:35:15.949Z,99257.87
2018-07-11T02:35:47.225Z,99253.98
2018-07-11T02:36:18.473Z,99257.11
2018-07-11T02:36:49.725Z,99259.38
2018-07-11T02:37:20.922Z,99258.98
2018-07-11T02:37:52.113Z,99250.80
2018-07-11T02:38:23.350Z,99259.20
2018-07-11T02:38:54.610Z,99266.27
2018-07-11T02:39:25.837Z,99268.17
2018-07-11T02:39:57.075Z,99261.20
2018-07-11T02:40:28.273Z,99263.84
2018-07-11T02:40:59.484Z,99263.84
2018-07-11T02:41:30.711Z,99262.89
2018-07-11T02:42:01.933Z,99263.27
2018-07-11T02:42:33.118Z,99266.27
2018-07-11T02:43:04.293Z,99260.98
2018-07-11T02:43:35.517Z,99260.04
2018-07-11T02:44:06.746Z,99261.73
2018-07-11T02:44:37.991Z,99258.54
2018-07-11T02:45:09.234Z,99261.91
2018-07-11T02:45:40.417Z,99261.34
2018-07-11T02:46:11.626Z,99266.41
2018-07-11T02:46:42.852Z,99263.59
2018-07-11T02:47:14.029Z,99263.48
2018-07-11T02:47:45.258Z,99263.59
2018-07-11T02:48:16.455Z,99268.49
2018-07-11T02:48:47.641Z,99266.90
2018-07-11T02:49:18.834Z,99266.06
2018-07-11T02:49:50.013Z,99273.02
2018-07-11T02:50:21.241Z,99266.25
2018-07-11T02:50:52.432Z,99275.60
2018-07-11T02:51:23.617Z,99272.69
2018-07-11T02:51:54.839Z,99278.70
2018-07-11T02:52:26.069Z,99272.09
2018-07-11T02:52:57.245Z,99271.37
2018-07-11T02:53:28.649Z,99272.30
2018-07-11T02:53:59.873Z,99268.83
2018-07-11T02:54:31.060Z,99271.55
2018-07-11T02:55:02.297Z,99270.23
2018-07-11T02:55:33.536Z,99267.23
2018-07-11T02:56:04.769Z,99268.07
2018-07-11T02:56:35.964Z,99265.81
2018-07-11T02:57:07.233Z,99271.47
2018-07-11T02:57:38.471Z,99268.83
2018-07-11T02:58:09.719Z,99264.38
2018-07-11T02:58:40.913Z,99277.59
2018-07-11T02:59:12.104Z,99271.81
2018-07-11T02:59:43.280Z,99266.81
2018-07-11T03:00:14.469Z,99271.91
2018-07-11T03:00:45.690Z,99270.59
2018-07-11T03:01:16.872Z,99266.06
2018-07-11T03:01:48.099Z,99271.35
2018-07-11T03:02:19.391Z,99272.08
2018-07-11T03:02:50.589Z,99273.99
2018-07-11T03:03:21.772Z,99269.81
2018-07-11T03:03:52.964Z,99269.63
2018-07-11T03:04:24.144Z,99269.91
2018-07-11T03:04:55.377Z,99274.14
2018-07-11T03:05:26.666Z,99275.46
2018-07-11T03:05:57.951Z,99270.83
2018-07-11T03:06:29.128Z,99267.32
2018-07-11T03:07:00.332Z,99271.44
2018-07-11T03:07:31.508Z,99269.45
2018-07-11T03:08:02.740Z,99270.10
2018-07-11T03:08:33.937Z,99274.66
2018-07-11T03:09:05.132Z,99273.80
2018-07-11T03:09:36.397Z,99272.37
2018-07-11T03:10:07.795Z,99272.34
2018-07-11T03:10:39.031Z,99273.26
2018-07-11T03:11:10.927Z,99273.18
2018-07-11T03:11:42.125Z,99270.35
2018-07-11T03:12:13.312Z,99276.29
2018-07-11T03:12:44.484Z,99272.86
2018-07-11T03:13:15.693Z,99276.80
2018-07-11T03:13:46.881Z,99272.19
2018-07-11T03:14:18.066Z,99264.07
2018-07-11T03:14:49.249Z,99270.68
2018-07-11T03:15:20.424Z,99269.92
2018-07-11T03:15:51.602Z,99269.36
2018-07-11T03:16:22.830Z,99269.78
2018-07-11T03:16:54.021Z,99267.20
2018-07-11T03:17:25.258Z,99266.15
2018-07-11T03:17:56.497Z,99274.50
2018-07-11T03:18:27.716Z,99266.89
2018-07-11T03:18:58.953Z,99266.09
2018-07-11T03:19:30.135Z,99269.16
2018-07-11T03:20:01.346Z,99260.27
2018-07-11T03:20:32.524Z,99262.92
2018-07-11T03:21:03.717Z,99263.55
2018-07-11T03:21:34.944Z,99265.97
2018-07-11T03:22:06.145Z,99263.84
2018-07-11T03:22:37.901Z,99270.06
2018-07-11T03:23:09.132Z,99261.55
2018-07-11T03:23:40.308Z,99260.00
2018-07-11T03:24:11.496Z,99257.41
2018-07-11T03:24:42.673Z,99261.06
2018-07-11T03:25:13.885Z,99260.84
2018-07-11T03:25:45.214Z,99261.27
2018-07-11T03:26:16.453Z,99260.55
2018-07-11T03:26:47.744Z,99261.86
2018-07-11T03:27:18.926Z,99259.97
2018-07-11T03:27:50.148Z,99264.52
2018-07-11T03:28:21.386Z,99269.37
2018-07-11T03:28:52.617Z,99261.92
2018-07-11T03:29:23.892Z,99262.81
2018-07-11T03:29:55.073Z,99260.79
2018-07-11T03:30:26.313Z,99260.34
2018-07-11T03:30:57.513Z,99262.56
2018-07-11T03:31:29.042Z,99257.39
2018-07-11T03:32:00.274Z,99259.85
2018-07-11T03:32:31.527Z,99258.70
2018-07-11T03:33:02.753Z,99258.62
2018-07-11T03:33:34.032Z,99263.97
2018-07-11T03:34:05.225Z,99262.56
2018-07-11T03:34:36.440Z,99267.04
2018-07-11T03:35:07.677Z,99265.02
2018-07-11T03:35:38.864Z,99258.67
2018-07-11T03:36:10.107Z,99259.42
2018-07-11T03:36:41.345Z,99254.73
2018-07-11T03:37:12.569Z,99260.08
2018-07-11T03:37:43.837Z,99264.05
2018-07-11T03:38:15.091Z,99267.35
2018-07-11T03:38:46.276Z,99269.30
2018-07-11T03:39:17.468Z,99266.27
2018-07-11T03:39:48.696Z,99265.97
2018-07-11T03:40:19.929Z,99269.48
2018-07-11T03:40:51.124Z,99267.55
2018-07-11T03:41:22.359Z,99273.47
2018-07-11T03:41:53.597Z,99266.62
2018-07-11T03:42:24.784Z,99271.09
2018-07-11T03:42:56.013Z,99273.75
2018-07-11T03:43:27.192Z,99276.05
2018-07-11T03:43:58.429Z,99274.11
2018-07-11T03:44:29.662Z,99274.48
2018-07-11T03:45:00.891Z,99274.23
2018-07-11T03:45:32.120Z,99278.09
2018-07-11T03:46:03.387Z,99273.72
2018-07-11T03:46:34.581Z,99276.72
2018-07-11T03:47:05.797Z,99276.69
2018-07-11T03:47:37.029Z,99280.68
2018-07-11T03:48:08.269Z,99278.11
2018-07-11T03:48:39.507Z,99278.25
2018-07-11T03:49:10.686Z,99280.50
2018-07-11T03:49:41.901Z,99278.70
2018-07-11T03:50:13.072Z,99280.12
2018-07-11T03:50:44.257Z,99277.78
2018-07-11T03:51:15.433Z,99271.67
2018-07-11T03:51:46.709Z,99274.64
2018-07-11T03:52:17.896Z,99276.31
2018-07-11T03:52:49.069Z,99278.05
2018-07-11T03:53:20.330Z,99273.67
2018-07-11T03:53:51.600Z,99275.87
2018-07-11T03:54:22.796Z,99278.59
2018-07-11T03:54:53.964Z,99274.58
2018-07-11T03:55:25.151Z,99279.58
2018-07-11T03:55:56.373Z,99277.21
2018-07-11T03:56:27.552Z,99277.27
2018-07-11T03:56:58.773Z,99276.40
2018-07-11T03:57:30.010Z,99275.27
2018-07-11T03:58:01.201Z,99278.09
2018-07-11T03:58:32.376Z,99279.33
2018-07-11T03:59:03.560Z,99272.45
2018-07-11T03:59:34.732Z,99275.88
2018-07-11T04:00:06.142Z,99276.20
2018-07-11T04:00:37.345Z,99276.20
2018-07-11T04:01:08.532Z,99274.80
2018-07-11T04:01:39.732Z,99272.70
2018-07-11T04:02:10.918Z,99274.80
2018-07-11T04:02:42.185Z,99274.73
2018-07-11T04:03:13.372Z,99275.60
2018-07-11T04:03:44.561Z,99276.16
2018-07-11T04:04:15.732Z,99274.92
2018-07-11T04:04:46.978Z,99270.63
2018-07-11T04:05:18.160Z,99272.49
2018-07-11T04:05:49.384Z,99276.44
2018-07-11T04:06:20.628Z,99279.89
2018-07-11T04:06:51.864Z,99278.06
2018-07-11T04:07:23.061Z,99277.83
2018-07-11T04:07:54.228Z,99280.48
2018-07-11T04:08:26.356Z,99271.11
2018-07-11T04:08:57.588Z,99272.90
2018-07-11T04:09:28.781Z,99269.81
2018-07-11T04:09:59.993Z,99275.77
2018-07-11T04:10:31.775Z,99274.27
2018-07-11T04:11:03.048Z,99274.11
2018-07-11T04:11:34.241Z,99280.80
2018-07-11T04:12:05.428Z,99275.88
2018-07-11T04:12:36.612Z,99280.59
2018-07-11T04:13:07.857Z,99278.51
2018-07-11T04:13:39.053Z,99277.48
2018-07-11T04:14:10.276Z,99278.28
2018-07-11T04:14:41.456Z,99280.06
2018-07-11T04:15:12.686Z,99277.89
2018-07-11T04:15:43.894Z,99277.80
2018-07-11T04:16:15.068Z,99281.21
2018-07-11T04:16:46.305Z,99278.19
2018-07-11T04:17:17.504Z,99280.59
2018-07-11T04:17:48.668Z,99283.03
2018-07-11T04:18:19.844Z,99281.72
2018-07-11T04:18:51.101Z,99283.13
2018-07-11T04:19:22.336Z,99286.90
2018-07-11T04:19:53.516Z,99279.48
2018-07-11T04:20:24.697Z,99286.98
2018-07-11T04:20:55.872Z,99284.41
2018-07-11T04:21:27.054Z,99284.84
2018-07-11T04:21:58.221Z,99290.28
2018-07-11T04:22:30.000Z,99291.17
2018-07-11T04:23:01.186Z,99291.59
2018-07-11T04:23:32.408Z,99287.59
2018-07-11T04:24:03.632Z,99288.75
2018-07-11T04:24:34.858Z,99285.78
2018-07-11T04:25:06.087Z,99295.62
2018-07-11T04:25:37.272Z,99288.01
2018-07-11T04:26:08.453Z,99288.97
2018-07-11T04:26:39.632Z,99288.45
2018-07-11T04:27:10.815Z,99284.89
2018-07-11T04:27:42.058Z,99280.84
2018-07-11T04:28:13.278Z,99289.08
2018-07-11T04:28:44.486Z,99285.53
2018-07-11T04:29:15.658Z,99285.39
2018-07-11T04:29:46.888Z,99287.51
2018-07-11T04:30:18.071Z,99290.69
2018-07-11T04:30:49.258Z,99290.23
2018-07-11T04:31:20.482Z,99289.55
2018-07-11T04:31:51.668Z,99299.52
2018-07-11T04:32:22.855Z,99286.75
2018-07-11T04:32:54.029Z,99291.20
2018-07-11T04:33:25.275Z,99288.66
2018-07-11T04:33:56.428Z,99291.91
2018-07-11T04:34:27.676Z,99297.28
2018-07-11T04:34:58.862Z,99292.34
2018-07-11T04:35:30.090Z,99291.27
2018-07-11T04:36:01.339Z,99298.25
2018-07-11T04:36:32.569Z,99295.51
2018-07-11T04:37:03.744Z,99295.31
2018-07-11T04:37:34.920Z,99296.09
2018-07-11T04:38:06.094Z,99294.34
2018-07-11T04:38:37.346Z,99301.11
2018-07-11T04:39:08.648Z,99299.72
2018-07-11T04:39:39.833Z,99298.43
2018-07-11T04:40:11.078Z,99301.75
2018-07-11T04:40:42.270Z,99301.31
2018-07-11T04:41:13.457Z,99296.56
2018-07-11T04:41:44.726Z,99296.64
2018-07-11T04:42:15.957Z,99298.72
2018-07-11T04:42:47.134Z,99296.80
2018-07-11T04:43:18.324Z,99295.36
2018-07-11T04:43:49.493Z,99300.81
2018-07-11T04:44:20.729Z,99295.44
2018-07-11T04:44:51.968Z,99299.42
2018-07-11T04:45:23.572Z,99297.88
2018-07-11T04:45:54.799Z,99293.88
2018-07-11T04:46:25.989Z,99303.16
2018-07-11T04:46:57.155Z,99301.33
2018-07-11T04:47:29.218Z,99306.39
2018-07-11T04:48:00.405Z,99304.64
2018-07-11T04:48:31.581Z,99301.29
2018-07-11T04:49:02.764Z,99300.08
2018-07-11T04:49:33.945Z,99304.75
2018-07-11T04:50:05.124Z,99302.97
2018-07-11T04:50:36.298Z,99306.45
2018-07-11T04:51:07.488Z,99296.61
2018-07-11T04:51:38.677Z,99301.13
2018-07-11T04:52:09.901Z,99299.23
2018-07-11T04:52:41.102Z,99303.24
2018-07-11T04:53:12.277Z,99299.77
2018-07-11T04:53:43.516Z,99297.94
2018-07-11T04:54:14.791Z,99301.09
2018-07-11T04:54:46.087Z,99293.51
2018-07-11T04:55:17.403Z,99300.86
2018-07-11T04:55:50.632Z,99295.28
2018-07-11T04:56:21.853Z,99295.06
2018-07-11T04:56:53.034Z,99294.90
2018-07-11T04:57:24.236Z,99296.66
2018-07-11T04:57:56.253Z,99290.97
2018-07-11T04:58:27.443Z,99293.55
2018-07-11T04:58:58.616Z,99296.84
2018-07-11T04:59:29.840Z,99301.94
2018-07-11T05:00:01.021Z,99299.21
2018-07-11T05:00:32.265Z,99296.72
2018-07-11T05:01:03.504Z,99300.09
2018-07-11T05:01:34.699Z,99300.50
2018-07-11T05:02:05.876Z,99295.66
2018-07-11T05:02:37.098Z,99294.86
2018-07-11T05:03:08.276Z,99291.02
2018-07-11T05:03:39.453Z,99302.66
2018-07-11T05:04:10.625Z,99325.02
2018-07-11T05:04:41.881Z,99298.14
2018-07-11T05:05:13.097Z,99296.81
2018-07-11T05:05:44.288Z,99300.70
2018-07-11T05:06:15.534Z,99299.56
2018-07-11T05:06:46.717Z,99296.85
2018-07-11T05:07:17.897Z,99303.45
2018-07-11T05:07:49.125Z,99300.67
2018-07-11T05:08:20.348Z,99296.36
2018-07-11T05:08:51.540Z,99301.16
2018-07-11T05:09:22.805Z,99298.81
2018-07-11T05:09:53.993Z,99295.61
2018-07-11T05:10:25.181Z,99300.05
2018-07-11T05:10:57.325Z,99294.63
2018-07-11T05:11:28.537Z,99298.53
2018-07-11T05:11:59.760Z,99296.63
2018-07-11T05:12:30.949Z,99294.82
2018-07-11T05:13:02.182Z,99296.27
2018-07-11T05:13:33.376Z,99302.58
2018-07-11T05:14:04.565Z,99298.98
2018-07-11T05:14:35.796Z,99295.28
2018-07-11T05:15:07.057Z,99299.33
2018-07-11T05:15:38.286Z,99299.94
2018-07-11T05:16:09.523Z,99307.16
2018-07-11T05:16:40.698Z,99298.20
2018-07-11T05:17:11.888Z,99300.48
2018-07-11T05:17:43.093Z,99297.84
2018-07-11T05:18:14.281Z,99293.20
2018-07-11T05:18:45.465Z,99300.29
2018-07-11T05:19:16.653Z,99291.38
2018-07-11T05:19:47.876Z,99300.27
2018-07-11T05:20:19.116Z,99298.03
2018-07-11T05:20:50.344Z,99297.38
2018-07-11T05:21:21.589Z,99301.95
2018-07-11T05:21:52.760Z,99302.98
2018-07-11T05:22:23.994Z,99296.94
2018-07-11T05:22:55.181Z,99297.94
2018-07-11T05:23:26.435Z,99302.47
2018-07-11T05:23:57.676Z,99306.00
2018-07-11T05:24:28.912Z,99294.58
2018-07-11T05:25:00.211Z,99303.81
2018-07-11T05:25:31.388Z,99301.29
2018-07-11T05:26:02.598Z,99306.45
2018-07-11T05:26:33.792Z,99301.89
2018-07-11T05:27:04.966Z,99300.92
2018-07-11T05:27:36.175Z,99300.02
2018-07-11T05:28:07.393Z,99305.69
2018-07-11T05:28:38.578Z,99302.66
2018-07-11T05:29:09.762Z,99301.80
2018-07-11T05:29:40.944Z,99304.52
2018-07-11T05:30:12.168Z,99303.00
2018-07-11T05:30:43.343Z,99304.33
2018-07-11T05:31:14.514Z,99305.45
2018-07-11T05:31:45.750Z,99304.69
2018-07-11T05:32:16.993Z,99307.61
2018-07-11T05:32:48.238Z,99312.15
2018-07-11T05:33:19.452Z,99309.72
2018-07-11T05:33:50.632Z,99309.59
2018-07-11T05:34:21.865Z,99306.41
2018-07-11T05:34:53.107Z,99313.44
2018-07-11T05:35:24.337Z,99308.59
2018-07-11T05:35:55.505Z,99313.50
2018-07-11T05:36:26.877Z,99307.64
2018-07-11T05:36:58.094Z,99311.04
2018-07-11T05:37:29.269Z,99315.75
2018-07-11T05:38:00.449Z,99315.09
2018-07-11T05:38:31.737Z,99311.20
2018-07-11T05:39:02.919Z,99318.11
2018-07-11T05:39:34.100Z,99311.03
2018-07-11T05:40:05.338Z,99318.59
2018-07-11T05:40:36.520Z,99313.34
2018-07-11T05:41:07.690Z,99316.16
2018-07-11T05:41:38.894Z,99316.65
2018-07-11T05:42:10.113Z,99317.47
2018-07-11T05:42:41.285Z,99316.99
2018-07-11T05:43:12.452Z,99317.38
2018-07-11T05:43:43.685Z,99310.65
2018-07-11T05:44:14.883Z,99319.64
2018-07-11T05:44:46.441Z,99319.85
2018-07-11T05:45:17.938Z,99315.16
2018-07-11T05:45:49.149Z,99321.05
2018-07-11T05:46:20.364Z,99315.30
2018-07-11T05:46:51.607Z,99326.88
2018-07-11T05:47:23.032Z,99319.45
2018-07-11T05:47:54.308Z,99324.74
2018-07-11T05:48:25.501Z,99314.92
2018-07-11T05:48:56.716Z,99322.75
2018-07-11T05:49:27.895Z,99317.97
2018-07-11T05:49:59.073Z,99322.16
2018-07-11T05:50:31.555Z,99323.05
2018-07-11T05:51:02.814Z,99318.58
2018-07-11T05:51:34.026Z,99318.83
2018-07-11T05:52:05.344Z,99328.75
2018-07-11T05:52:36.606Z,99321.22
2018-07-11T05:53:07.874Z,99327.11
2018-07-11T05:53:39.063Z,99331.36
2018-07-11T05:54:10.280Z,99329.63
2018-07-11T05:54:41.529Z,99328.02
2018-07-11T05:55:12.712Z,99332.09
2018-07-11T05:55:44.092Z,99327.01
2018-07-11T05:56:15.330Z,99332.77
2018-07-11T05:56:46.508Z,99329.45
2018-07-11T05:57:17.683Z,99332.20
2018-07-11T05:57:48.942Z,99331.76
2018-07-11T05:58:20.184Z,99330.26
2018-07-11T05:58:51.456Z,99333.48
2018-07-11T05:59:22.773Z,99340.74
2018-07-11T05:59:54.006Z,99336.08
2018-07-11T06:00:25.192Z,99332.89
2018-07-11T06:00:56.474Z,99268.36
2018-07-11T06:01:27.709Z,99330.36
2018-07-11T06:01:58.937Z,99335.09
2018-07-11T06:02:30.127Z,99324.20
2018-07-11T06:03:01.332Z,99337.40
2018-07-11T06:03:32.569Z,99334.39
2018-07-11T06:04:03.772Z,99334.75
2018-07-11T06:04:34.991Z,99334.75
2018-07-11T06:05:06.208Z,99341.73
2018-07-11T06:05:37.420Z,99341.12
2018-07-11T06:06:08.634Z,99342.20
2018-07-11T06:06:39.873Z,99335.18